sensor_id;sensor_type;location;lat;lon;timestamp;P1;durP1;ratioP1;P2;durP2;ratioP2
9174;SDS011;54374;50.196;8.050;2022-10-14T00:01:01;5.35;;;3.83;;
9174;SDS011;54374;50.196;8.050;2022-10-14T00:03:31;4.82;;;3.35;;
9174;SDS011;54374;50.196;8.050;2022-10-14T00:06:01;6.22;;;3.80;;
9174;SDS011;54374;50.196;8.050;2022-10-14T00:08:29;8.65;;;3.65;;
9174;SDS011;54374;50.196;8.050;2022-10-14T00:11:01;6.32;;;3.78;;
9174;SDS011;54374;50.196;8.050;2022-10-14T00:13:31;5.82;;;3.70;;
9174;SDS011;54374;50.196;8.050;2022-10-14T00:15:58;8.50;;;3.80;;
9174;SDS011;54374;50.196;8.050;2022-10-14T00:18:28;3.38;;;2.95;;
9174;SDS011;54374;50.196;8.050;2022-10-14T00:20:55;4.90;;;3.28;;
9174;SDS011;54374;50.196;8.050;2022-10-14T00:23:24;4.90;;;3.70;;
9174;SDS011;54374;50.196;8.050;2022-10-14T00:25:51;5.97;;;3.67;;
9174;SDS011;54374;50.196;8.050;2022-10-14T00:28:20;9.77;;;3.70;;
9174;SDS011;54374;50.196;8.050;2022-10-14T00:30:53;4.60;;;3.30;;
9174;SDS011;54374;50.196;8.050;2022-10-14T00:33:20;5.05;;;3.50;;
9174;SDS011;54374;50.196;8.050;2022-10-14T00:35:54;6.50;;;3.85;;
9174;SDS011;54374;50.196;8.050;2022-10-14T00:38:28;6.03;;;3.40;;
9174;SDS011;54374;50.196;8.050;2022-10-14T00:40:54;4.50;;;3.22;;
9174;SDS011;54374;50.196;8.050;2022-10-14T00:43:22;5.95;;;3.00;;
9174;SDS011;54374;50.196;8.050;2022-10-14T00:45:50;6.57;;;3.47;;
9174;SDS011;54374;50.196;8.050;2022-10-14T00:48:18;5.97;;;3.00;;
9174;SDS011;54374;50.196;8.050;2022-10-14T00:50:50;3.20;;;2.40;;
9174;SDS011;54374;50.196;8.050;2022-10-14T00:53:19;4.35;;;2.15;;
9174;SDS011;54374;50.196;8.050;2022-10-14T00:55:49;3.45;;;2.80;;
9174;SDS011;54374;50.196;8.050;2022-10-14T00:58:16;4.50;;;2.20;;
9174;SDS011;54374;50.196;8.050;2022-10-14T01:04:04;4.10;;;2.72;;
9174;SDS011;54374;50.196;8.050;2022-10-14T01:06:37;3.33;;;2.50;;
9174;SDS011;54374;50.196;8.050;2022-10-14T01:09:08;2.83;;;2.17;;
9174;SDS011;54374;50.196;8.050;2022-10-14T01:11:43;2.00;;;1.80;;
9174;SDS011;54374;50.196;8.050;2022-10-14T01:14:15;6.53;;;2.90;;
9174;SDS011;54374;50.196;8.050;2022-10-14T01:16:49;6.38;;;2.90;;
9174;SDS011;54374;50.196;8.050;2022-10-14T01:19:27;3.03;;;2.53;;
9174;SDS011;54374;50.196;8.050;2022-10-14T01:22:04;2.80;;;2.30;;
9174;SDS011;54374;50.196;8.050;2022-10-14T01:24:39;2.30;;;2.10;;
9174;SDS011;54374;50.196;8.050;2022-10-14T01:27:20;3.15;;;2.50;;
9174;SDS011;54374;50.196;8.050;2022-10-14T01:32:49;2.30;;;2.08;;
9174;SDS011;54374;50.196;8.050;2022-10-14T01:35:22;2.20;;;1.98;;
9174;SDS011;54374;50.196;8.050;2022-10-14T01:37:52;2.28;;;2.08;;
9174;SDS011;54374;50.196;8.050;2022-10-14T01:40:23;2.45;;;1.73;;
9174;SDS011;54374;50.196;8.050;2022-10-14T01:42:54;2.63;;;1.70;;
9174;SDS011;54374;50.196;8.050;2022-10-14T01:45:23;7.93;;;2.00;;
9174;SDS011;54374;50.196;8.050;2022-10-14T01:47:51;3.33;;;2.17;;
9174;SDS011;54374;50.196;8.050;2022-10-14T01:50:19;2.00;;;1.60;;
9174;SDS011;54374;50.196;8.050;2022-10-14T01:52:49;3.42;;;1.70;;
9174;SDS011;54374;50.196;8.050;2022-10-14T01:55:21;6.45;;;2.17;;
9174;SDS011;54374;50.196;8.050;2022-10-14T01:57:50;3.25;;;2.15;;
9174;SDS011;54374;50.196;8.050;2022-10-14T02:00:19;4.25;;;2.15;;
9174;SDS011;54374;50.196;8.050;2022-10-14T02:03:15;2.45;;;2.13;;
9174;SDS011;54374;50.196;8.050;2022-10-14T02:05:44;1.90;;;1.50;;
9174;SDS011;54374;50.196;8.050;2022-10-14T02:08:16;3.47;;;2.00;;
9174;SDS011;54374;50.196;8.050;2022-10-14T02:10:50;1.65;;;1.50;;
9174;SDS011;54374;50.196;8.050;2022-10-14T02:13:28;2.45;;;2.13;;
9174;SDS011;54374;50.196;8.050;2022-10-14T02:16:04;5.35;;;2.10;;
9174;SDS011;54374;50.196;8.050;2022-10-14T02:18:39;3.67;;;1.52;;
9174;SDS011;54374;50.196;8.050;2022-10-14T02:21:11;3.28;;;1.80;;
9174;SDS011;54374;50.196;8.050;2022-10-14T02:24:01;3.22;;;1.90;;
9174;SDS011;54374;50.196;8.050;2022-10-14T02:26:31;1.60;;;1.50;;
9174;SDS011;54374;50.196;8.050;2022-10-14T02:28:59;1.60;;;1.40;;
9174;SDS011;54374;50.196;8.050;2022-10-14T02:31:28;2.88;;;1.73;;
9174;SDS011;54374;50.196;8.050;2022-10-14T02:33:59;2.45;;;2.25;;
9174;SDS011;54374;50.196;8.050;2022-10-14T02:36:28;3.03;;;2.20;;
9174;SDS011;54374;50.196;8.050;2022-10-14T02:38:57;3.63;;;2.30;;
9174;SDS011;54374;50.196;8.050;2022-10-14T02:41:26;3.47;;;2.40;;
9174;SDS011;54374;50.196;8.050;2022-10-14T02:43:56;4.07;;;2.20;;
9174;SDS011;54374;50.196;8.050;2022-10-14T02:46:23;4.20;;;2.50;;
9174;SDS011;54374;50.196;8.050;2022-10-14T02:48:50;4.53;;;1.92;;
9174;SDS011;54374;50.196;8.050;2022-10-14T02:51:19;6.40;;;1.95;;
9174;SDS011;54374;50.196;8.050;2022-10-14T02:53:46;6.50;;;3.10;;
9174;SDS011;54374;50.196;8.050;2022-10-14T02:56:13;6.55;;;2.20;;
9174;SDS011;54374;50.196;8.050;2022-10-14T02:58:41;3.85;;;2.13;;
9174;SDS011;54374;50.196;8.050;2022-10-14T03:01:08;2.67;;;2.15;;
9174;SDS011;54374;50.196;8.050;2022-10-14T03:03:35;3.30;;;1.67;;
9174;SDS011;54374;50.196;8.050;2022-10-14T03:06:02;6.40;;;2.20;;
9174;SDS011;54374;50.196;8.050;2022-10-14T03:08:31;4.72;;;2.10;;
9174;SDS011;54374;50.196;8.050;2022-10-14T03:10:58;1.45;;;1.35;;
9174;SDS011;54374;50.196;8.050;2022-10-14T03:13:26;2.80;;;1.55;;
9174;SDS011;54374;50.196;8.050;2022-10-14T03:15:53;3.55;;;1.67;;
9174;SDS011;54374;50.196;8.050;2022-10-14T03:18:20;3.13;;;1.85;;
9174;SDS011;54374;50.196;8.050;2022-10-14T03:20:51;3.33;;;1.60;;
9174;SDS011;54374;50.196;8.050;2022-10-14T03:23:23;3.50;;;1.80;;
9174;SDS011;54374;50.196;8.050;2022-10-14T03:25:53;3.55;;;2.25;;
9174;SDS011;54374;50.196;8.050;2022-10-14T03:28:25;3.42;;;1.98;;
9174;SDS011;54374;50.196;8.050;2022-10-14T03:31:05;2.33;;;2.00;;
9174;SDS011;54374;50.196;8.050;2022-10-14T03:33:47;2.88;;;1.83;;
9174;SDS011;54374;50.196;8.050;2022-10-14T03:36:16;4.75;;;2.17;;
9174;SDS011;54374;50.196;8.050;2022-10-14T03:38:48;3.28;;;2.20;;
9174;SDS011;54374;50.196;8.050;2022-10-14T03:41:28;2.78;;;1.70;;
9174;SDS011;54374;50.196;8.050;2022-10-14T03:43:57;4.40;;;2.65;;
9174;SDS011;54374;50.196;8.050;2022-10-14T03:46:25;2.55;;;2.10;;
9174;SDS011;54374;50.196;8.050;2022-10-14T03:48:52;4.75;;;1.85;;
9174;SDS011;54374;50.196;8.050;2022-10-14T03:51:19;6.70;;;2.10;;
9174;SDS011;54374;50.196;8.050;2022-10-14T03:53:46;2.13;;;1.92;;
9174;SDS011;54374;50.196;8.050;2022-10-14T03:56:21;3.80;;;2.20;;
9174;SDS011;54374;50.196;8.050;2022-10-14T03:58:51;2.97;;;1.70;;
9174;SDS011;54374;50.196;8.050;2022-10-14T04:01:19;5.18;;;2.30;;
9174;SDS011;54374;50.196;8.050;2022-10-14T04:04:02;1.83;;;1.70;;
9174;SDS011;54374;50.196;8.050;2022-10-14T04:06:29;2.50;;;2.03;;
9174;SDS011;54374;50.196;8.050;2022-10-14T04:08:58;3.17;;;2.10;;
9174;SDS011;54374;50.196;8.050;2022-10-14T04:11:32;3.53;;;2.25;;
9174;SDS011;54374;50.196;8.050;2022-10-14T04:14:05;4.18;;;3.05;;
9174;SDS011;54374;50.196;8.050;2022-10-14T04:16:38;4.25;;;2.55;;
9174;SDS011;54374;50.196;8.050;2022-10-14T04:19:09;2.50;;;2.30;;
9174;SDS011;54374;50.196;8.050;2022-10-14T04:21:38;7.43;;;2.92;;
9174;SDS011;54374;50.196;8.050;2022-10-14T04:24:06;4.15;;;2.70;;
9174;SDS011;54374;50.196;8.050;2022-10-14T04:26:54;3.10;;;2.80;;
9174;SDS011;54374;50.196;8.050;2022-10-14T04:29:48;5.97;;;2.72;;
9174;SDS011;54374;50.196;8.050;2022-10-14T04:32:24;3.65;;;2.50;;
9174;SDS011;54374;50.196;8.050;2022-10-14T04:34:53;3.78;;;2.53;;
9174;SDS011;54374;50.196;8.050;2022-10-14T04:37:23;6.45;;;3.50;;
9174;SDS011;54374;50.196;8.050;2022-10-14T04:39:58;4.22;;;3.55;;
9174;SDS011;54374;50.196;8.050;2022-10-14T04:42:27;5.90;;;3.38;;
9174;SDS011;54374;50.196;8.050;2022-10-14T04:45:00;6.38;;;4.32;;
9174;SDS011;54374;50.196;8.050;2022-10-14T04:47:40;6.75;;;3.63;;
9174;SDS011;54374;50.196;8.050;2022-10-14T04:50:07;6.68;;;4.57;;
9174;SDS011;54374;50.196;8.050;2022-10-14T04:52:35;5.60;;;3.85;;
9174;SDS011;54374;50.196;8.050;2022-10-14T04:55:08;8.43;;;3.70;;
9174;SDS011;54374;50.196;8.050;2022-10-14T04:57:39;6.38;;;4.18;;
9174;SDS011;54374;50.196;8.050;2022-10-14T05:00:10;5.00;;;3.80;;
9174;SDS011;54374;50.196;8.050;2022-10-14T05:02:50;5.20;;;3.40;;
9174;SDS011;54374;50.196;8.050;2022-10-14T05:05:18;7.20;;;4.65;;
9174;SDS011;54374;50.196;8.050;2022-10-14T05:07:49;7.80;;;5.00;;
9174;SDS011;54374;50.196;8.050;2022-10-14T05:10:43;7.18;;;4.15;;
9174;SDS011;54374;50.196;8.050;2022-10-14T05:13:17;5.85;;;4.35;;
9174;SDS011;54374;50.196;8.050;2022-10-14T05:15:57;6.32;;;4.30;;
9174;SDS011;54374;50.196;8.050;2022-10-14T05:18:24;9.20;;;5.50;;
9174;SDS011;54374;50.196;8.050;2022-10-14T05:21:01;8.27;;;3.97;;
9174;SDS011;54374;50.196;8.050;2022-10-14T05:23:54;5.53;;;3.95;;
9174;SDS011;54374;50.196;8.050;2022-10-14T05:26:21;12.32;;;5.05;;
9174;SDS011;54374;50.196;8.050;2022-10-14T05:28:50;7.13;;;4.55;;
9174;SDS011;54374;50.196;8.050;2022-10-14T05:31:19;10.45;;;5.60;;
9174;SDS011;54374;50.196;8.050;2022-10-14T05:33:58;11.82;;;5.90;;
9174;SDS011;54374;50.196;8.050;2022-10-14T05:36:28;11.60;;;5.13;;
9174;SDS011;54374;50.196;8.050;2022-10-14T05:38:55;13.25;;;6.35;;
9174;SDS011;54374;50.196;8.050;2022-10-14T05:41:25;15.00;;;6.90;;
9174;SDS011;54374;50.196;8.050;2022-10-14T05:43:52;15.15;;;8.10;;
9174;SDS011;54374;50.196;8.050;2022-10-14T05:46:20;12.57;;;6.80;;
9174;SDS011;54374;50.196;8.050;2022-10-14T05:48:52;14.73;;;7.50;;
9174;SDS011;54374;50.196;8.050;2022-10-14T05:51:19;11.93;;;7.30;;
9174;SDS011;54374;50.196;8.050;2022-10-14T05:53:51;13.57;;;6.93;;
9174;SDS011;54374;50.196;8.050;2022-10-14T05:56:18;22.02;;;8.50;;
9174;SDS011;54374;50.196;8.050;2022-10-14T05:58:45;15.50;;;8.40;;
9174;SDS011;54374;50.196;8.050;2022-10-14T06:01:13;16.50;;;7.90;;
9174;SDS011;54374;50.196;8.050;2022-10-14T06:03:42;18.35;;;8.85;;
9174;SDS011;54374;50.196;8.050;2022-10-14T06:06:10;15.98;;;8.65;;
9174;SDS011;54374;50.196;8.050;2022-10-14T06:08:38;16.90;;;8.27;;
9174;SDS011;54374;50.196;8.050;2022-10-14T06:11:06;16.95;;;8.00;;
9174;SDS011;54374;50.196;8.050;2022-10-14T06:13:33;14.38;;;7.30;;
9174;SDS011;54374;50.196;8.050;2022-10-14T06:16:01;17.25;;;7.70;;
9174;SDS011;54374;50.196;8.050;2022-10-14T06:18:28;16.45;;;8.73;;
9174;SDS011;54374;50.196;8.050;2022-10-14T06:20:57;14.48;;;8.73;;
9174;SDS011;54374;50.196;8.050;2022-10-14T06:23:24;16.08;;;8.40;;
9174;SDS011;54374;50.196;8.050;2022-10-14T06:25:51;23.95;;;8.82;;
9174;SDS011;54374;50.196;8.050;2022-10-14T06:28:18;20.60;;;10.40;;
9174;SDS011;54374;50.196;8.050;2022-10-14T06:30:48;18.30;;;8.82;;
9174;SDS011;54374;50.196;8.050;2022-10-14T06:33:15;17.83;;;9.13;;
9174;SDS011;54374;50.196;8.050;2022-10-14T06:35:41;16.48;;;8.45;;
9174;SDS011;54374;50.196;8.050;2022-10-14T06:38:09;16.38;;;8.88;;
9174;SDS011;54374;50.196;8.050;2022-10-14T06:40:36;15.93;;;9.35;;
9174;SDS011;54374;50.196;8.050;2022-10-14T06:43:03;17.60;;;9.43;;
9174;SDS011;54374;50.196;8.050;2022-10-14T06:45:30;19.45;;;10.23;;
9174;SDS011;54374;50.196;8.050;2022-10-14T06:47:57;17.95;;;9.90;;
9174;SDS011;54374;50.196;8.050;2022-10-14T06:50:24;16.42;;;8.43;;
9174;SDS011;54374;50.196;8.050;2022-10-14T06:52:51;15.52;;;9.00;;
9174;SDS011;54374;50.196;8.050;2022-10-14T06:55:19;19.50;;;9.45;;
9174;SDS011;54374;50.196;8.050;2022-10-14T06:57:46;17.42;;;8.30;;
9174;SDS011;54374;50.196;8.050;2022-10-14T07:00:15;16.60;;;8.95;;
9174;SDS011;54374;50.196;8.050;2022-10-14T07:02:43;15.93;;;9.15;;
9174;SDS011;54374;50.196;8.050;2022-10-14T07:05:10;16.08;;;8.52;;
9174;SDS011;54374;50.196;8.050;2022-10-14T07:07:37;16.08;;;8.95;;
9174;SDS011;54374;50.196;8.050;2022-10-14T07:10:04;17.63;;;9.05;;
9174;SDS011;54374;50.196;8.050;2022-10-14T07:12:33;18.95;;;9.02;;
9174;SDS011;54374;50.196;8.050;2022-10-14T07:15:00;15.20;;;8.20;;
9174;SDS011;54374;50.196;8.050;2022-10-14T07:17:29;17.23;;;9.85;;
9174;SDS011;54374;50.196;8.050;2022-10-14T07:19:56;17.58;;;9.18;;
9174;SDS011;54374;50.196;8.050;2022-10-14T07:22:22;16.88;;;9.02;;
9174;SDS011;54374;50.196;8.050;2022-10-14T07:24:49;20.15;;;8.02;;
9174;SDS011;54374;50.196;8.050;2022-10-14T07:27:16;14.98;;;8.25;;
9174;SDS011;54374;50.196;8.050;2022-10-14T07:29:46;14.82;;;8.27;;
9174;SDS011;54374;50.196;8.050;2022-10-14T07:32:13;17.27;;;8.75;;
9174;SDS011;54374;50.196;8.050;2022-10-14T07:34:40;18.27;;;8.57;;
9174;SDS011;54374;50.196;8.050;2022-10-14T07:37:06;18.00;;;9.18;;
9174;SDS011;54374;50.196;8.050;2022-10-14T07:39:33;17.25;;;8.02;;
9174;SDS011;54374;50.196;8.050;2022-10-14T07:42:01;16.20;;;7.80;;
9174;SDS011;54374;50.196;8.050;2022-10-14T07:44:28;16.35;;;8.20;;
9174;SDS011;54374;50.196;8.050;2022-10-14T07:46:56;15.70;;;7.50;;
9174;SDS011;54374;50.196;8.050;2022-10-14T07:49:26;17.60;;;8.27;;
9174;SDS011;54374;50.196;8.050;2022-10-14T07:51:53;15.07;;;8.02;;
9174;SDS011;54374;50.196;8.050;2022-10-14T07:54:21;14.90;;;7.90;;
9174;SDS011;54374;50.196;8.050;2022-10-14T07:56:49;12.45;;;6.93;;
9174;SDS011;54374;50.196;8.050;2022-10-14T07:59:16;12.20;;;6.35;;
9174;SDS011;54374;50.196;8.050;2022-10-14T08:01:44;13.05;;;6.97;;
9174;SDS011;54374;50.196;8.050;2022-10-14T08:04:13;13.02;;;7.30;;
9174;SDS011;54374;50.196;8.050;2022-10-14T08:06:39;17.67;;;8.13;;
9174;SDS011;54374;50.196;8.050;2022-10-14T08:09:07;17.30;;;7.90;;
9174;SDS011;54374;50.196;8.050;2022-10-14T08:11:35;18.20;;;7.82;;
9174;SDS011;54374;50.196;8.050;2022-10-14T08:14:02;15.63;;;7.53;;
9174;SDS011;54374;50.196;8.050;2022-10-14T08:16:30;15.38;;;8.05;;
9174;SDS011;54374;50.196;8.050;2022-10-14T08:18:58;13.85;;;7.72;;
9174;SDS011;54374;50.196;8.050;2022-10-14T08:21:27;16.52;;;7.53;;
9174;SDS011;54374;50.196;8.050;2022-10-14T08:23:54;14.23;;;7.53;;
9174;SDS011;54374;50.196;8.050;2022-10-14T08:26:23;12.60;;;8.13;;
9174;SDS011;54374;50.196;8.050;2022-10-14T08:28:54;13.25;;;7.47;;
9174;SDS011;54374;50.196;8.050;2022-10-14T08:31:21;13.75;;;8.07;;
9174;SDS011;54374;50.196;8.050;2022-10-14T08:33:48;14.45;;;7.88;;
9174;SDS011;54374;50.196;8.050;2022-10-14T08:36:20;12.55;;;7.68;;
9174;SDS011;54374;50.196;8.050;2022-10-14T08:38:50;17.50;;;8.32;;
9174;SDS011;54374;50.196;8.050;2022-10-14T08:44:09;16.52;;;8.13;;
9174;SDS011;54374;50.196;8.050;2022-10-14T08:46:39;13.73;;;7.65;;
9174;SDS011;54374;50.196;8.050;2022-10-14T08:49:10;14.30;;;7.85;;
9174;SDS011;54374;50.196;8.050;2022-10-14T08:51:39;16.15;;;8.00;;
9174;SDS011;54374;50.196;8.050;2022-10-14T08:54:10;15.20;;;7.70;;
9174;SDS011;54374;50.196;8.050;2022-10-14T08:56:40;15.73;;;8.35;;
9174;SDS011;54374;50.196;8.050;2022-10-14T08:59:09;18.60;;;8.60;;
9174;SDS011;54374;50.196;8.050;2022-10-14T09:01:39;15.65;;;7.57;;
9174;SDS011;54374;50.196;8.050;2022-10-14T09:04:13;14.98;;;8.60;;
9174;SDS011;54374;50.196;8.050;2022-10-14T09:06:41;18.13;;;8.43;;
9174;SDS011;54374;50.196;8.050;2022-10-14T09:09:13;16.15;;;8.13;;
9174;SDS011;54374;50.196;8.050;2022-10-14T09:11:45;12.65;;;7.15;;
9174;SDS011;54374;50.196;8.050;2022-10-14T09:14:16;17.52;;;8.45;;
9174;SDS011;54374;50.196;8.050;2022-10-14T09:16:43;14.70;;;6.95;;
9174;SDS011;54374;50.196;8.050;2022-10-14T09:19:13;18.15;;;7.90;;
9174;SDS011;54374;50.196;8.050;2022-10-14T09:21:42;13.27;;;7.95;;
9174;SDS011;54374;50.196;8.050;2022-10-14T09:24:14;12.70;;;7.82;;
9174;SDS011;54374;50.196;8.050;2022-10-14T09:26:49;11.35;;;6.95;;
9174;SDS011;54374;50.196;8.050;2022-10-14T09:29:20;14.15;;;7.78;;
9174;SDS011;54374;50.196;8.050;2022-10-14T09:31:50;12.18;;;7.40;;
9174;SDS011;54374;50.196;8.050;2022-10-14T09:34:17;12.02;;;7.10;;
9174;SDS011;54374;50.196;8.050;2022-10-14T09:36:46;11.65;;;7.20;;
9174;SDS011;54374;50.196;8.050;2022-10-14T09:39:16;13.98;;;6.97;;
9174;SDS011;54374;50.196;8.050;2022-10-14T09:41:43;16.02;;;7.07;;
9174;SDS011;54374;50.196;8.050;2022-10-14T09:44:13;14.95;;;8.07;;
9174;SDS011;54374;50.196;8.050;2022-10-14T09:46:45;14.07;;;7.82;;
9174;SDS011;54374;50.196;8.050;2022-10-14T09:49:14;14.13;;;7.22;;
9174;SDS011;54374;50.196;8.050;2022-10-14T09:51:42;21.75;;;8.13;;
9174;SDS011;54374;50.196;8.050;2022-10-14T09:54:18;15.57;;;7.50;;
9174;SDS011;54374;50.196;8.050;2022-10-14T09:56:47;21.25;;;7.80;;
9174;SDS011;54374;50.196;8.050;2022-10-14T09:59:14;11.23;;;7.25;;
9174;SDS011;54374;50.196;8.050;2022-10-14T10:01:48;11.80;;;6.85;;
9174;SDS011;54374;50.196;8.050;2022-10-14T10:04:23;13.70;;;6.60;;
9174;SDS011;54374;50.196;8.050;2022-10-14T10:06:53;12.60;;;6.97;;
9174;SDS011;54374;50.196;8.050;2022-10-14T10:09:22;14.55;;;8.90;;
9174;SDS011;54374;50.196;8.050;2022-10-14T10:11:50;11.85;;;6.82;;
9174;SDS011;54374;50.196;8.050;2022-10-14T10:14:21;10.95;;;6.53;;
9174;SDS011;54374;50.196;8.050;2022-10-14T10:16:49;9.68;;;5.90;;
9174;SDS011;54374;50.196;8.050;2022-10-14T10:19:25;14.20;;;7.00;;
9174;SDS011;54374;50.196;8.050;2022-10-14T10:21:53;8.18;;;5.93;;
9174;SDS011;54374;50.196;8.050;2022-10-14T10:24:22;16.58;;;7.13;;
9174;SDS011;54374;50.196;8.050;2022-10-14T10:26:49;12.40;;;7.03;;
9174;SDS011;54374;50.196;8.050;2022-10-14T10:29:22;13.73;;;6.40;;
9174;SDS011;54374;50.196;8.050;2022-10-14T10:32:04;11.63;;;6.57;;
9174;SDS011;54374;50.196;8.050;2022-10-14T10:34:58;11.80;;;6.50;;
9174;SDS011;54374;50.196;8.050;2022-10-14T10:37:31;14.18;;;6.32;;
9174;SDS011;54374;50.196;8.050;2022-10-14T10:40:05;10.50;;;6.10;;
9174;SDS011;54374;50.196;8.050;2022-10-14T10:42:41;9.90;;;5.70;;
9174;SDS011;54374;50.196;8.050;2022-10-14T10:45:19;11.83;;;6.57;;
9174;SDS011;54374;50.196;8.050;2022-10-14T10:47:56;9.83;;;5.50;;
9174;SDS011;54374;50.196;8.050;2022-10-14T10:50:28;9.55;;;5.82;;
9174;SDS011;54374;50.196;8.050;2022-10-14T10:53:03;11.55;;;6.35;;
9174;SDS011;54374;50.196;8.050;2022-10-14T10:55:42;10.60;;;6.50;;
9174;SDS011;54374;50.196;8.050;2022-10-14T10:58:17;8.45;;;5.35;;
9174;SDS011;54374;50.196;8.050;2022-10-14T11:00:53;14.00;;;6.20;;
9174;SDS011;54374;50.196;8.050;2022-10-14T11:03:33;7.67;;;5.10;;
9174;SDS011;54374;50.196;8.050;2022-10-14T11:06:08;12.10;;;7.03;;
9174;SDS011;54374;50.196;8.050;2022-10-14T11:08:45;9.18;;;5.93;;
9174;SDS011;54374;50.196;8.050;2022-10-14T11:11:37;9.27;;;6.10;;
9174;SDS011;54374;50.196;8.050;2022-10-14T11:14:32;14.23;;;6.40;;
9174;SDS011;54374;50.196;8.050;2022-10-14T11:17:05;11.70;;;6.55;;
9174;SDS011;54374;50.196;8.050;2022-10-14T11:19:41;13.13;;;7.03;;
9174;SDS011;54374;50.196;8.050;2022-10-14T11:22:14;10.35;;;6.90;;
9174;SDS011;54374;50.196;8.050;2022-10-14T11:24:50;11.40;;;6.60;;
9174;SDS011;54374;50.196;8.050;2022-10-14T11:27:26;12.27;;;7.28;;
9174;SDS011;54374;50.196;8.050;2022-10-14T11:30:09;12.07;;;7.20;;
9174;SDS011;54374;50.196;8.050;2022-10-14T11:32:42;10.75;;;6.88;;
9174;SDS011;54374;50.196;8.050;2022-10-14T11:35:22;8.35;;;6.13;;
9174;SDS011;54374;50.196;8.050;2022-10-14T11:37:56;12.65;;;6.45;;
9174;SDS011;54374;50.196;8.050;2022-10-14T11:40:30;11.23;;;6.05;;
9174;SDS011;54374;50.196;8.050;2022-10-14T11:43:08;10.80;;;5.70;;
9174;SDS011;54374;50.196;8.050;2022-10-14T11:45:43;10.07;;;5.53;;
9174;SDS011;54374;50.196;8.050;2022-10-14T11:48:23;10.50;;;6.32;;
9174;SDS011;54374;50.196;8.050;2022-10-14T11:50:54;11.90;;;6.60;;
9174;SDS011;54374;50.196;8.050;2022-10-14T11:53:26;10.35;;;6.10;;
9174;SDS011;54374;50.196;8.050;2022-10-14T11:56:01;10.02;;;6.60;;
9174;SDS011;54374;50.196;8.050;2022-10-14T11:58:31;8.70;;;6.32;;
9174;SDS011;54374;50.196;8.050;2022-10-14T12:01:00;10.15;;;6.30;;
9174;SDS011;54374;50.196;8.050;2022-10-14T12:03:34;8.80;;;5.75;;
9174;SDS011;54374;50.196;8.050;2022-10-14T12:06:10;10.20;;;5.53;;
9174;SDS011;54374;50.196;8.050;2022-10-14T12:08:40;9.30;;;5.57;;
9174;SDS011;54374;50.196;8.050;2022-10-14T12:11:11;6.22;;;4.55;;
9174;SDS011;54374;50.196;8.050;2022-10-14T12:13:48;7.18;;;5.20;;
9174;SDS011;54374;50.196;8.050;2022-10-14T12:16:18;9.35;;;6.32;;
9174;SDS011;54374;50.196;8.050;2022-10-14T12:18:48;6.90;;;4.68;;
9174;SDS011;54374;50.196;8.050;2022-10-14T12:21:16;7.50;;;4.75;;
9174;SDS011;54374;50.196;8.050;2022-10-14T12:23:45;5.93;;;3.95;;
9174;SDS011;54374;50.196;8.050;2022-10-14T12:26:15;7.90;;;5.03;;
9174;SDS011;54374;50.196;8.050;2022-10-14T12:29:00;6.35;;;4.45;;
9174;SDS011;54374;50.196;8.050;2022-10-14T12:31:36;6.70;;;4.57;;
9174;SDS011;54374;50.196;8.050;2022-10-14T12:34:13;5.88;;;4.40;;
9174;SDS011;54374;50.196;8.050;2022-10-14T12:36:43;5.20;;;3.70;;
9174;SDS011;54374;50.196;8.050;2022-10-14T12:39:21;4.20;;;3.40;;
9174;SDS011;54374;50.196;8.050;2022-10-14T12:41:57;6.18;;;3.20;;
9174;SDS011;54374;50.196;8.050;2022-10-14T12:44:27;3.90;;;3.23;;
9174;SDS011;54374;50.196;8.050;2022-10-14T12:46:58;4.00;;;3.55;;
9174;SDS011;54374;50.196;8.050;2022-10-14T12:49:26;4.80;;;3.33;;
9174;SDS011;54374;50.196;8.050;2022-10-14T12:51:54;3.20;;;2.55;;
9174;SDS011;54374;50.196;8.050;2022-10-14T12:54:22;5.35;;;3.72;;
9174;SDS011;54374;50.196;8.050;2022-10-14T12:56:53;3.83;;;2.70;;
9174;SDS011;54374;50.196;8.050;2022-10-14T12:59:23;4.10;;;2.65;;
9174;SDS011;54374;50.196;8.050;2022-10-14T13:01:54;4.07;;;2.40;;
9174;SDS011;54374;50.196;8.050;2022-10-14T13:04:22;2.53;;;2.33;;
9174;SDS011;54374;50.196;8.050;2022-10-14T13:09:39;3.95;;;2.45;;
9174;SDS011;54374;50.196;8.050;2022-10-14T13:15:47;4.10;;;1.90;;
9174;SDS011;54374;50.196;8.050;2022-10-14T13:18:34;3.17;;;1.95;;
9174;SDS011;54374;50.196;8.050;2022-10-14T13:21:07;2.00;;;1.80;;
9174;SDS011;54374;50.196;8.050;2022-10-14T13:23:36;2.65;;;1.92;;
9174;SDS011;54374;50.196;8.050;2022-10-14T13:28:52;1.33;;;1.20;;
9174;SDS011;54374;50.196;8.050;2022-10-14T13:31:25;1.73;;;1.63;;
9174;SDS011;54374;50.196;8.050;2022-10-14T13:34:00;1.40;;;1.27;;
9174;SDS011;54374;50.196;8.050;2022-10-14T13:36:36;1.13;;;1.13;;
9174;SDS011;54374;50.196;8.050;2022-10-14T13:39:07;1.10;;;1.10;;
9174;SDS011;54374;50.196;8.050;2022-10-14T13:41:34;1.20;;;1.10;;
9174;SDS011;54374;50.196;8.050;2022-10-14T13:44:02;1.63;;;0.83;;
9174;SDS011;54374;50.196;8.050;2022-10-14T13:46:31;1.45;;;1.30;;
9174;SDS011;54374;50.196;8.050;2022-10-14T13:49:05;2.87;;;1.97;;
9174;SDS011;54374;50.196;8.050;2022-10-14T13:51:39;0.90;;;0.90;;
9174;SDS011;54374;50.196;8.050;2022-10-14T13:54:14;1.27;;;1.05;;
9174;SDS011;54374;50.196;8.050;2022-10-14T13:56:43;1.30;;;1.20;;
9174;SDS011;54374;50.196;8.050;2022-10-14T13:59:17;1.10;;;1.10;;
9174;SDS011;54374;50.196;8.050;2022-10-14T14:01:47;2.37;;;1.57;;
9174;SDS011;54374;50.196;8.050;2022-10-14T14:04:18;3.08;;;2.70;;
9174;SDS011;54374;50.196;8.050;2022-10-14T14:06:48;1.40;;;1.30;;
9174;SDS011;54374;50.196;8.050;2022-10-14T14:09:16;2.10;;;1.83;;
9174;SDS011;54374;50.196;8.050;2022-10-14T14:11:45;1.75;;;1.63;;
9174;SDS011;54374;50.196;8.050;2022-10-14T14:14:15;2.17;;;1.30;;
9174;SDS011;54374;50.196;8.050;2022-10-14T14:16:46;2.47;;;1.53;;
9174;SDS011;54374;50.196;8.050;2022-10-14T14:19:18;2.10;;;1.50;;
9174;SDS011;54374;50.196;8.050;2022-10-14T14:21:45;1.70;;;1.40;;
9174;SDS011;54374;50.196;8.050;2022-10-14T14:24:17;1.40;;;1.30;;
9174;SDS011;54374;50.196;8.050;2022-10-14T14:26:54;1.40;;;1.10;;
9174;SDS011;54374;50.196;8.050;2022-10-14T14:29:27;2.00;;;1.90;;
9174;SDS011;54374;50.196;8.050;2022-10-14T14:31:57;2.40;;;1.87;;
9174;SDS011;54374;50.196;8.050;2022-10-14T14:34:29;1.57;;;1.47;;
9174;SDS011;54374;50.196;8.050;2022-10-14T14:36:57;2.10;;;1.90;;
9174;SDS011;54374;50.196;8.050;2022-10-14T14:39:28;2.63;;;2.20;;
9174;SDS011;54374;50.196;8.050;2022-10-14T14:41:55;3.77;;;1.80;;
9174;SDS011;54374;50.196;8.050;2022-10-14T14:44:24;2.23;;;1.70;;
9174;SDS011;54374;50.196;8.050;2022-10-14T14:46:54;2.00;;;1.70;;
9174;SDS011;54374;50.196;8.050;2022-10-14T14:49:24;2.10;;;2.00;;
9174;SDS011;54374;50.196;8.050;2022-10-14T14:51:54;2.47;;;1.80;;
9174;SDS011;54374;50.196;8.050;2022-10-14T14:54:21;2.23;;;1.80;;
9174;SDS011;54374;50.196;8.050;2022-10-14T14:56:49;1.53;;;1.43;;
9174;SDS011;54374;50.196;8.050;2022-10-14T14:59:20;2.60;;;1.70;;
9174;SDS011;54374;50.196;8.050;2022-10-14T15:01:51;1.63;;;1.33;;
9174;SDS011;54374;50.196;8.050;2022-10-14T15:04:19;2.77;;;1.90;;
9174;SDS011;54374;50.196;8.050;2022-10-14T15:06:50;2.47;;;2.27;;
9174;SDS011;54374;50.196;8.050;2022-10-14T15:09:23;2.83;;;2.23;;
9174;SDS011;54374;50.196;8.050;2022-10-14T15:11:56;2.40;;;1.47;;
9174;SDS011;54374;50.196;8.050;2022-10-14T15:14:25;1.60;;;1.50;;
9174;SDS011;54374;50.196;8.050;2022-10-14T15:16:55;1.90;;;1.57;;
9174;SDS011;54374;50.196;8.050;2022-10-14T15:19:27;1.70;;;1.60;;
9174;SDS011;54374;50.196;8.050;2022-10-14T15:22:09;2.60;;;2.40;;
9174;SDS011;54374;50.196;8.050;2022-10-14T15:25:02;5.17;;;3.40;;
9174;SDS011;54374;50.196;8.050;2022-10-14T15:27:42;2.87;;;1.80;;
9174;SDS011;54374;50.196;8.050;2022-10-14T15:33:01;1.83;;;1.73;;
9174;SDS011;54374;50.196;8.050;2022-10-14T15:35:30;2.43;;;2.00;;
9174;SDS011;54374;50.196;8.050;2022-10-14T15:37:57;2.67;;;2.45;;
9174;SDS011;54374;50.196;8.050;2022-10-14T15:40:27;2.40;;;2.20;;